sensor_id;sensor_type;location;lat;lon;timestamp;pressure;altitude;pressure_sealevel;temperature;humidity
53659;BME280;41524;35.624;139.698;2024-01-25T00:00:11;100867.00;;;17.53;14.87
53659;BME280;41524;35.624;139.698;2024-01-25T00:05:10;100870.00;;;16.51;15.20
53659;BME280;41524;35.624;139.698;2024-01-25T00:10:11;100861.00;;;18.36;14.47
53659;BME280;41524;35.624;139.698;2024-01-25T00:15:12;100868.00;;;20.56;13.03
53659;BME280;41524;35.624;139.698;2024-01-25T00:20:12;100867.00;;;22.13;12.58
53659;BME280;41524;35.624;139.698;2024-01-25T00:25:11;100887.00;;;18.06;14.14
53659;BME280;41524;35.624;139.698;2024-01-25T00:30:12;100876.00;;;19.41;12.44
53659;BME280;41524;35.624;139.698;2024-01-25T00:35:12;100877.00;;;23.04;11.36
53659;BME280;41524;35.624;139.698;2024-01-25T00:40:12;100880.00;;;17.35;12.36
53659;BME280;41524;35.624;139.698;2024-01-25T00:45:13;100893.00;;;12.03;15.40
53659;BME280;41524;35.624;139.698;2024-01-25T00:50:11;100902.00;;;7.00;19.50
53659;BME280;41524;35.624;139.698;2024-01-25T00:55:12;100903.00;;;7.71;19.67
53659;BME280;41524;35.624;139.698;2024-01-25T01:00:12;100909.00;;;6.54;19.75
53659;BME280;41524;35.624;139.698;2024-01-25T01:05:11;100906.00;;;8.58;19.84
53659;BME280;41524;35.624;139.698;2024-01-25T01:10:11;100899.00;;;8.65;18.71
53659;BME280;41524;35.624;139.698;2024-01-25T01:15:11;100894.00;;;8.24;20.41
53659;BME280;41524;35.624;139.698;2024-01-25T01:20:11;100890.00;;;7.86;18.97
53659;BME280;41524;35.624;139.698;2024-01-25T01:25:10;100888.00;;;8.97;19.19
53659;BME280;41524;35.624;139.698;2024-01-25T01:30:12;100893.00;;;7.63;18.48
53659;BME280;41524;35.624;139.698;2024-01-25T01:35:11;100890.00;;;9.15;17.93
53659;BME280;41524;35.624;139.698;2024-01-25T01:40:11;100877.00;;;8.41;18.52
53659;BME280;41524;35.624;139.698;2024-01-25T01:45:12;100869.00;;;9.62;18.20
53659;BME280;41524;35.624;139.698;2024-01-25T01:50:11;100867.00;;;8.45;18.46
53659;BME280;41524;35.624;139.698;2024-01-25T01:55:10;100859.00;;;7.56;18.53
53659;BME280;41524;35.624;139.698;2024-01-25T02:00:11;100845.00;;;8.62;18.51
53659;BME280;41524;35.624;139.698;2024-01-25T02:05:11;100838.00;;;8.48;18.48
53659;BME280;41524;35.624;139.698;2024-01-25T02:10:11;100827.00;;;8.59;17.81
53659;BME280;41524;35.624;139.698;2024-01-25T02:15:16;100810.00;;;9.70;17.43
53659;BME280;41524;35.624;139.698;2024-01-25T02:20:11;100811.00;;;9.48;17.49
53659;BME280;41524;35.624;139.698;2024-01-25T02:25:11;100800.00;;;10.48;18.14
53659;BME280;41524;35.624;139.698;2024-01-25T02:30:11;100785.00;;;10.66;17.35
53659;BME280;41524;35.624;139.698;2024-01-25T02:35:11;100782.00;;;11.09;17.10
53659;BME280;41524;35.624;139.698;2024-01-25T02:40:11;100776.00;;;10.38;16.69
53659;BME280;41524;35.624;139.698;2024-01-25T02:45:12;100767.00;;;10.45;16.86
53659;BME280;41524;35.624;139.698;2024-01-25T02:50:11;100749.00;;;11.29;16.89
53659;BME280;41524;35.624;139.698;2024-01-25T02:55:11;100745.00;;;11.26;17.82
53659;BME280;41524;35.624;139.698;2024-01-25T03:00:11;100734.00;;;11.27;16.56
53659;BME280;41524;35.624;139.698;2024-01-25T03:05:10;100729.00;;;10.46;16.42
53659;BME280;41524;35.624;139.698;2024-01-25T03:10:11;100715.00;;;8.84;16.55
53659;BME280;41524;35.624;139.698;2024-01-25T03:15:12;100705.00;;;10.09;17.54
53659;BME280;41524;35.624;139.698;2024-01-25T03:20:11;100698.00;;;10.70;16.39
53659;BME280;41524;35.624;139.698;2024-01-25T03:25:11;100698.00;;;11.51;16.59
53659;BME280;41524;35.624;139.698;2024-01-25T03:30:11;100696.00;;;10.73;16.61
53659;BME280;41524;35.624;139.698;2024-01-25T03:35:11;100688.00;;;11.81;15.95
53659;BME280;41524;35.624;139.698;2024-01-25T03:40:11;100686.00;;;10.36;15.89
53659;BME280;41524;35.624;139.698;2024-01-25T03:45:11;100672.00;;;11.42;15.78
53659;BME280;41524;35.624;139.698;2024-01-25T03:50:11;100675.00;;;11.56;14.73
53659;BME280;41524;35.624;139.698;2024-01-25T03:55:11;100662.00;;;11.82;15.00
53659;BME280;41524;35.624;139.698;2024-01-25T04:00:12;100663.00;;;10.10;16.09
53659;BME280;41524;35.624;139.698;2024-01-25T04:05:11;100664.00;;;12.26;15.21
53659;BME280;41524;35.624;139.698;2024-01-25T04:10:11;100660.00;;;12.41;15.62
53659;BME280;41524;35.624;139.698;2024-01-25T04:15:11;100663.00;;;13.07;14.83
53659;BME280;41524;35.624;139.698;2024-01-25T04:20:12;100667.00;;;11.71;14.86
53659;BME280;41524;35.624;139.698;2024-01-25T04:25:11;100676.00;;;11.38;15.41
53659;BME280;41524;35.624;139.698;2024-01-25T04:30:11;100670.00;;;12.45;15.07
53659;BME280;41524;35.624;139.698;2024-01-25T04:35:11;100676.00;;;11.09;15.21
53659;BME280;41524;35.624;139.698;2024-01-25T04:40:11;100673.00;;;13.15;14.63
53659;BME280;41524;35.624;139.698;2024-01-25T04:45:12;100675.00;;;14.48;14.06
53659;BME280;41524;35.624;139.698;2024-01-25T04:50:11;100676.00;;;12.40;14.58
53659;BME280;41524;35.624;139.698;2024-01-25T04:55:12;100669.00;;;12.32;14.77
53659;BME280;41524;35.624;139.698;2024-01-25T05:00:18;100684.00;;;13.33;14.21
53659;BME280;41524;35.624;139.698;2024-01-25T05:05:11;100678.00;;;10.07;15.47
53659;BME280;41524;35.624;139.698;2024-01-25T05:10:11;100681.00;;;9.84;15.92
53659;BME280;41524;35.624;139.698;2024-01-25T05:15:25;100691.00;;;8.51;17.02
53659;BME280;41524;35.624;139.698;2024-01-25T05:20:11;100695.00;;;8.21;16.67
53659;BME280;41524;35.624;139.698;2024-01-25T05:25:11;100699.00;;;7.23;16.94
53659;BME280;41524;35.624;139.698;2024-01-25T05:30:11;100707.00;;;8.00;16.93
53659;BME280;41524;35.624;139.698;2024-01-25T05:35:11;100701.00;;;7.75;16.95
53659;BME280;41524;35.624;139.698;2024-01-25T05:40:11;100711.00;;;7.19;17.01
53659;BME280;41524;35.624;139.698;2024-01-25T05:45:12;100711.00;;;7.97;17.41
53659;BME280;41524;35.624;139.698;2024-01-25T05:50:12;100708.00;;;8.50;17.46
53659;BME280;41524;35.624;139.698;2024-01-25T05:55:11;100708.00;;;7.97;17.84
53659;BME280;41524;35.624;139.698;2024-01-25T06:00:12;100719.00;;;7.96;17.47
53659;BME280;41524;35.624;139.698;2024-01-25T06:05:12;100719.00;;;7.03;17.52
53659;BME280;41524;35.624;139.698;2024-01-25T06:10:11;100729.00;;;7.29;17.60
53659;BME280;41524;35.624;139.698;2024-01-25T06:15:10;100727.00;;;6.40;17.84
53659;BME280;41524;35.624;139.698;2024-01-25T06:20:12;100729.00;;;6.19;18.10
53659;BME280;41524;35.624;139.698;2024-01-25T06:25:11;100724.00;;;7.03;17.14
53659;BME280;41524;35.624;139.698;2024-01-25T06:30:14;100734.00;;;6.94;17.30
53659;BME280;41524;35.624;139.698;2024-01-25T06:35:11;100737.00;;;6.38;17.35
53659;BME280;41524;35.624;139.698;2024-01-25T06:40:11;100746.00;;;5.52;18.07
53659;BME280;41524;35.624;139.698;2024-01-25T06:45:11;100744.00;;;6.10;17.98
53659;BME280;41524;35.624;139.698;2024-01-25T06:50:17;100754.00;;;6.21;18.15
53659;BME280;41524;35.624;139.698;2024-01-25T06:55:11;100754.00;;;6.83;17.68
53659;BME280;41524;35.624;139.698;2024-01-25T07:00:24;100755.00;;;14.38;14.09
53659;BME280;41524;35.624;139.698;2024-01-25T07:05:11;100762.00;;;6.68;17.79
53659;BME280;41524;35.624;139.698;2024-01-25T07:10:11;100774.00;;;4.88;19.12
53659;BME280;41524;35.624;139.698;2024-01-25T07:15:12;100786.00;;;5.50;19.14
53659;BME280;41524;35.624;139.698;2024-01-25T07:20:12;100789.00;;;5.98;19.32
53659;BME280;41524;35.624;139.698;2024-01-25T07:25:11;100795.00;;;5.95;19.76
53659;BME280;41524;35.624;139.698;2024-01-25T07:30:12;100808.00;;;5.10;20.04
53659;BME280;41524;35.624;139.698;2024-01-25T07:35:11;100816.00;;;4.76;20.75
53659;BME280;41524;35.624;139.698;2024-01-25T07:40:12;100816.00;;;5.54;20.29
53659;BME280;41524;35.624;139.698;2024-01-25T07:45:23;100823.00;;;5.53;20.58
53659;BME280;41524;35.624;139.698;2024-01-25T07:50:11;100827.00;;;4.88;20.78
53659;BME280;41524;35.624;139.698;2024-01-25T07:55:11;100837.00;;;4.75;21.15
53659;BME280;41524;35.624;139.698;2024-01-25T08:00:11;100842.00;;;5.16;21.00
53659;BME280;41524;35.624;139.698;2024-01-25T08:05:10;100850.00;;;4.62;21.27
53659;BME280;41524;35.624;139.698;2024-01-25T08:10:12;100864.00;;;5.39;21.55
53659;BME280;41524;35.624;139.698;2024-01-25T08:15:11;100865.00;;;5.16;21.14
53659;BME280;41524;35.624;139.698;2024-01-25T08:20:12;100880.00;;;4.40;21.77
53659;BME280;41524;35.624;139.698;2024-01-25T08:25:11;100886.00;;;4.58;21.96
53659;BME280;41524;35.624;139.698;2024-01-25T08:30:11;100896.00;;;4.88;22.36
53659;BME280;41524;35.624;139.698;2024-01-25T08:35:10;100905.00;;;4.67;22.34
53659;BME280;41524;35.624;139.698;2024-01-25T08:40:12;100905.00;;;4.55;22.52
53659;BME280;41524;35.624;139.698;2024-01-25T08:45:11;100909.00;;;4.15;22.77
53659;BME280;41524;35.624;139.698;2024-01-25T08:50:12;100917.00;;;3.60;23.58
53659;BME280;41524;35.624;139.698;2024-01-25T08:55:11;100918.00;;;4.64;23.23
53659;BME280;41524;35.624;139.698;2024-01-25T09:00:11;100927.00;;;4.07;23.55
53659;BME280;41524;35.624;139.698;2024-01-25T09:05:12;100933.00;;;4.08;23.78
53659;BME280;41524;35.624;139.698;2024-01-25T09:10:11;100939.00;;;4.26;24.06
53659;BME280;41524;35.624;139.698;2024-01-25T09:15:11;100949.00;;;3.60;24.24
53659;BME280;41524;35.624;139.698;2024-01-25T09:20:11;100957.00;;;5.24;23.80
53659;BME280;41524;35.624;139.698;2024-01-25T09:25:11;100955.00;;;4.40;25.46
53659;BME280;41524;35.624;139.698;2024-01-25T09:30:11;100963.00;;;4.40;23.91
53659;BME280;41524;35.624;139.698;2024-01-25T09:35:11;100968.00;;;3.92;24.25
53659;BME280;41524;35.624;139.698;2024-01-25T09:40:12;100970.00;;;4.13;23.90
53659;BME280;41524;35.624;139.698;2024-01-25T09:45:12;100974.00;;;4.45;23.87
53659;BME280;41524;35.624;139.698;2024-01-25T09:50:11;100977.00;;;4.52;24.16
53659;BME280;41524;35.624;139.698;2024-01-25T09:55:13;100973.00;;;4.29;23.93
53659;BME280;41524;35.624;139.698;2024-01-25T10:00:18;100984.00;;;4.02;24.32
53659;BME280;41524;35.624;139.698;2024-01-25T10:05:10;100987.00;;;3.74;24.41
53659;BME280;41524;35.624;139.698;2024-01-25T10:10:11;100989.00;;;3.94;24.94
53659;BME280;41524;35.624;139.698;2024-01-25T10:15:11;100979.00;;;4.07;25.02
53659;BME280;41524;35.624;139.698;2024-01-25T10:20:12;100982.00;;;2.65;25.34
53659;BME280;41524;35.624;139.698;2024-01-25T10:25:14;100986.00;;;3.70;24.96
53659;BME280;41524;35.624;139.698;2024-01-25T10:30:12;100988.00;;;2.37;25.52
53659;BME280;41524;35.624;139.698;2024-01-25T10:35:11;100986.00;;;2.29;25.63
53659;BME280;41524;35.624;139.698;2024-01-25T10:40:12;100993.00;;;3.52;24.85
53659;BME280;41524;35.624;139.698;2024-01-25T10:45:11;100992.00;;;2.64;25.07
53659;BME280;41524;35.624;139.698;2024-01-25T10:50:11;101004.00;;;2.42;25.15
53659;BME280;41524;35.624;139.698;2024-01-25T10:55:13;101004.00;;;3.73;25.30
53659;BME280;41524;35.624;139.698;2024-01-25T11:00:12;101018.00;;;3.55;24.37
53659;BME280;41524;35.624;139.698;2024-01-25T11:05:14;101031.00;;;3.84;24.12
53659;BME280;41524;35.624;139.698;2024-01-25T11:10:15;101024.00;;;3.75;25.24
53659;BME280;41524;35.624;139.698;2024-01-25T11:15:11;101011.00;;;3.46;24.53
53659;BME280;41524;35.624;139.698;2024-01-25T11:20:15;101025.00;;;2.76;24.55
53659;BME280;41524;35.624;139.698;2024-01-25T11:25:13;101041.00;;;3.87;24.23
53659;BME280;41524;35.624;139.698;2024-01-25T11:30:11;101036.00;;;3.10;24.45
53659;BME280;41524;35.624;139.698;2024-01-25T11:35:11;101040.00;;;3.02;24.38
53659;BME280;41524;35.624;139.698;2024-01-25T11:40:11;101049.00;;;3.53;24.32
53659;BME280;41524;35.624;139.698;2024-01-25T11:45:11;101032.00;;;3.73;25.00
53659;BME280;41524;35.624;139.698;2024-01-25T11:50:13;101027.00;;;2.88;25.10
53659;BME280;41524;35.624;139.698;2024-01-25T11:55:11;101027.00;;;3.56;24.93
53659;BME280;41524;35.624;139.698;2024-01-25T12:00:16;101026.00;;;3.63;24.41
53659;BME280;41524;35.624;139.698;2024-01-25T12:05:16;101024.00;;;3.31;24.57
53659;BME280;41524;35.624;139.698;2024-01-25T12:10:16;101020.00;;;3.24;24.15
53659;BME280;41524;35.624;139.698;2024-01-25T12:15:11;101012.00;;;3.37;24.06
53659;BME280;41524;35.624;139.698;2024-01-25T12:20:12;101017.00;;;2.71;24.05
53659;BME280;41524;35.624;139.698;2024-01-25T12:25:11;101013.00;;;2.81;24.22
53659;BME280;41524;35.624;139.698;2024-01-25T12:30:11;101024.00;;;2.19;24.22
53659;BME280;41524;35.624;139.698;2024-01-25T12:35:10;101012.00;;;1.73;24.44
53659;BME280;41524;35.624;139.698;2024-01-25T12:40:12;101017.00;;;2.58;24.24
53659;BME280;41524;35.624;139.698;2024-01-25T12:45:11;101024.00;;;1.86;24.25
53659;BME280;41524;35.624;139.698;2024-01-25T12:50:11;101014.00;;;2.09;24.00
53659;BME280;41524;35.624;139.698;2024-01-25T12:55:11;101010.00;;;2.43;24.09
53659;BME280;41524;35.624;139.698;2024-01-25T13:00:11;101023.00;;;1.88;25.75
53659;BME280;41524;35.624;139.698;2024-01-25T13:05:12;101025.00;;;2.02;24.84
53659;BME280;41524;35.624;139.698;2024-01-25T13:10:12;101030.00;;;1.83;24.32
53659;BME280;41524;35.624;139.698;2024-01-25T13:15:11;101027.00;;;0.98;25.64
53659;BME280;41524;35.624;139.698;2024-01-25T13:20:12;101034.00;;;1.81;24.49
53659;BME280;41524;35.624;139.698;2024-01-25T13:25:22;101036.00;;;1.19;25.62
53659;BME280;41524;35.624;139.698;2024-01-25T13:30:11;101028.00;;;1.62;24.65
53659;BME280;41524;35.624;139.698;2024-01-25T13:35:11;101032.00;;;1.99;24.39
53659;BME280;41524;35.624;139.698;2024-01-25T13:40:20;101034.00;;;1.37;24.98
53659;BME280;41524;35.624;139.698;2024-01-25T13:45:10;101040.00;;;1.80;25.02
53659;BME280;41524;35.624;139.698;2024-01-25T13:50:10;101028.00;;;2.38;24.44
53659;BME280;41524;35.624;139.698;2024-01-25T13:55:10;101029.00;;;1.80;24.95
53659;BME280;41524;35.624;139.698;2024-01-25T14:00:13;101027.00;;;1.86;25.52
53659;BME280;41524;35.624;139.698;2024-01-25T14:05:10;101023.00;;;1.93;25.17
53659;BME280;41524;35.624;139.698;2024-01-25T14:10:10;101018.00;;;2.34;24.77
53659;BME280;41524;35.624;139.698;2024-01-25T14:15:11;101007.00;;;2.49;25.21
53659;BME280;41524;35.624;139.698;2024-01-25T14:20:11;101016.00;;;1.65;24.95
53659;BME280;41524;35.624;139.698;2024-01-25T14:25:11;101027.00;;;2.10;24.62
53659;BME280;41524;35.624;139.698;2024-01-25T14:30:12;101023.00;;;2.32;25.22
53659;BME280;41524;35.624;139.698;2024-01-25T14:35:11;101026.00;;;2.54;25.11
53659;BME280;41524;35.624;139.698;2024-01-25T14:40:11;101029.00;;;2.54;24.62
53659;BME280;41524;35.624;139.698;2024-01-25T14:45:10;101032.00;;;2.00;24.96
53659;BME280;41524;35.624;139.698;2024-01-25T14:50:10;101027.00;;;2.75;24.99
53659;BME280;41524;35.624;139.698;2024-01-25T14:55:11;101016.00;;;1.72;25.47
53659;BME280;41524;35.624;139.698;2024-01-25T15:00:17;101015.00;;;1.86;25.35
53659;BME280;41524;35.624;139.698;2024-01-25T15:05:11;101000.00;;;2.33;26.50
53659;BME280;41524;35.624;139.698;2024-01-25T15:10:12;100987.00;;;3.28;24.50
53659;BME280;41524;35.624;139.698;2024-01-25T15:15:11;100987.00;;;2.04;26.00
53659;BME280;41524;35.624;139.698;2024-01-25T15:20:11;100992.00;;;1.60;26.86
53659;BME280;41524;35.624;139.698;2024-01-25T15:25:10;100998.00;;;1.69;25.83
53659;BME280;41524;35.624;139.698;2024-01-25T15:30:11;100989.00;;;2.97;24.70
53659;BME280;41524;35.624;139.698;2024-01-25T15:35:12;100999.00;;;2.47;25.26
53659;BME280;41524;35.624;139.698;2024-01-25T15:40:12;100993.00;;;2.48;25.03
53659;BME280;41524;35.624;139.698;2024-01-25T15:45:11;100985.00;;;2.87;25.01
53659;BME280;41524;35.624;139.698;2024-01-25T15:50:11;100992.00;;;1.88;25.17
53659;BME280;41524;35.624;139.698;2024-01-25T15:55:10;101002.00;;;2.06;25.68
53659;BME280;41524;35.624;139.698;2024-01-25T16:00:13;100994.00;;;2.26;25.43
53659;BME280;41524;35.624;139.698;2024-01-25T16:05:12;100995.00;;;2.08;25.35
53659;BME280;41524;35.624;139.698;2024-01-25T16:10:10;101005.00;;;1.90;25.75
53659;BME280;41524;35.624;139.698;2024-01-25T16:15:10;100996.00;;;1.50;26.13
53659;BME280;41524;35.624;139.698;2024-01-25T16:20:12;100989.00;;;1.62;25.89
53659;BME280;41524;35.624;139.698;2024-01-25T16:25:12;100984.00;;;1.65;26.28
53659;BME280;41524;35.624;139.698;2024-01-25T16:30:12;100983.00;;;2.26;25.47
53659;BME280;41524;35.624;139.698;2024-01-25T16:35:12;100994.00;;;2.06;25.75
53659;BME280;41524;35.624;139.698;2024-01-25T16:40:11;101010.00;;;2.41;25.76
53659;BME280;41524;35.624;139.698;2024-01-25T16:45:11;101011.00;;;2.20;25.99
53659;BME280;41524;35.624;139.698;2024-01-25T16:50:11;101014.00;;;2.49;25.99
53659;BME280;41524;35.624;139.698;2024-01-25T16:55:12;101020.00;;;2.30;26.30
53659;BME280;41524;35.624;139.698;2024-01-25T17:00:13;101008.00;;;1.84;26.40
53659;BME280;41524;35.624;139.698;2024-01-25T17:05:10;101016.00;;;2.63;26.34
53659;BME280;41524;35.624;139.698;2024-01-25T17:10:11;101006.00;;;2.85;26.26
53659;BME280;41524;35.624;139.698;2024-01-25T17:15:11;100989.00;;;2.39;26.66
53659;BME280;41524;35.624;139.698;2024-01-25T17:20:11;101023.00;;;2.19;26.26
53659;BME280;41524;35.624;139.698;2024-01-25T17:25:13;101021.00;;;1.71;27.28
53659;BME280;41524;35.624;139.698;2024-01-25T17:30:11;101001.00;;;1.93;26.43
53659;BME280;41524;35.624;139.698;2024-01-25T17:35:10;101025.00;;;1.28;26.43
53659;BME280;41524;35.624;139.698;2024-01-25T17:40:11;101052.00;;;2.79;26.12
53659;BME280;41524;35.624;139.698;2024-01-25T17:45:11;101036.00;;;3.29;25.65
53659;BME280;41524;35.624;139.698;2024-01-25T17:50:11;101034.00;;;1.62;26.61
53659;BME280;41524;35.624;139.698;2024-01-25T17:55:11;101043.00;;;2.23;26.67
53659;BME280;41524;35.624;139.698;2024-01-25T18:00:35;101042.00;;;2.03;27.26
53659;BME280;41524;35.624;139.698;2024-01-25T18:05:27;101037.00;;;1.76;27.29
53659;BME280;41524;35.624;139.698;2024-01-25T18:10:11;101036.00;;;1.85;26.97
53659;BME280;41524;35.624;139.698;2024-01-25T18:15:11;101033.00;;;1.52;26.63
53659;BME280;41524;35.624;139.698;2024-01-25T18:20:12;101033.00;;;2.07;26.76
53659;BME280;41524;35.624;139.698;2024-01-25T18:25:11;101031.00;;;2.12;26.90
53659;BME280;41524;35.624;139.698;2024-01-25T18:30:12;101022.00;;;1.40;26.90
53659;BME280;41524;35.624;139.698;2024-01-25T18:35:11;101021.00;;;2.11;27.10
53659;BME280;41524;35.624;139.698;2024-01-25T18:40:12;101020.00;;;1.47;26.88
53659;BME280;41524;35.624;139.698;2024-01-25T18:45:10;101026.00;;;1.72;26.76
53659;BME280;41524;35.624;139.698;2024-01-25T18:50:11;101023.00;;;3.03;26.64
53659;BME280;41524;35.624;139.698;2024-01-25T18:55:12;101024.00;;;2.54;26.75
53659;BME280;41524;35.624;139.698;2024-01-25T19:00:12;101030.00;;;1.29;27.69
53659;BME280;41524;35.624;139.698;2024-01-25T19:05:12;101027.00;;;2.34;26.96
53659;BME280;41524;35.624;139.698;2024-01-25T19:10:11;101019.00;;;2.11;26.70
53659;BME280;41524;35.624;139.698;2024-01-25T19:15:11;101020.00;;;1.47;27.03
53659;BME280;41524;35.624;139.698;2024-01-25T19:20:12;101025.00;;;2.31;26.96
53659;BME280;41524;35.624;139.698;2024-01-25T19:25:10;101025.00;;;1.51;27.55
53659;BME280;41524;35.624;139.698;2024-01-25T19:30:12;101028.00;;;1.17;27.51
53659;BME280;41524;35.624;139.698;2024-01-25T19:35:12;101027.00;;;1.85;27.28
53659;BME280;41524;35.624;139.698;2024-01-25T19:40:11;101037.00;;;2.05;27.39
53659;BME280;41524;35.624;139.698;2024-01-25T19:45:10;101035.00;;;1.99;27.32
53659;BME280;41524;35.624;139.698;2024-01-25T19:50:12;101035.00;;;1.66;27.29
53659;BME280;41524;35.624;139.698;2024-01-25T19:55:10;101037.00;;;1.85;27.34
53659;BME280;41524;35.624;139.698;2024-01-25T20:00:12;101047.00;;;1.91;26.98
53659;BME280;41524;35.624;139.698;2024-01-25T20:05:16;101048.00;;;1.81;27.16
53659;BME280;41524;35.624;139.698;2024-01-25T20:10:11;101059.00;;;1.54;27.79
53659;BME280;41524;35.624;139.698;2024-01-25T20:15:12;101062.00;;;1.54;28.30
53659;BME280;41524;35.624;139.698;2024-01-25T20:20:12;101071.00;;;1.64;29.12
53659;BME280;41524;35.624;139.698;2024-01-25T20:25:11;101071.00;;;1.26;29.31
53659;BME280;41524;35.624;139.698;2024-01-25T20:30:12;101077.00;;;1.96;28.31
53659;BME280;41524;35.624;139.698;2024-01-25T20:35:10;101065.00;;;2.12;28.02
53659;BME280;41524;35.624;139.698;2024-01-25T20:40:11;101072.00;;;1.22;28.67
53659;BME280;41524;35.624;139.698;2024-01-25T20:45:10;101075.00;;;3.06;27.11
53659;BME280;41524;35.624;139.698;2024-01-25T20:50:11;101080.00;;;1.20;27.97
53659;BME280;41524;35.624;139.698;2024-01-25T20:55:11;101079.00;;;1.88;27.52
53659;BME280;41524;35.624;139.698;2024-01-25T21:00:11;101089.00;;;1.06;28.20
53659;BME280;41524;35.624;139.698;2024-01-25T21:05:12;101097.00;;;1.72;27.72
53659;BME280;41524;35.624;139.698;2024-01-25T21:10:12;101100.00;;;1.23;27.90
53659;BME280;41524;35.624;139.698;2024-01-25T21:15:12;101109.00;;;1.28;27.99
53659;BME280;41524;35.624;139.698;2024-01-25T21:20:11;101122.00;;;1.03;27.79
53659;BME280;41524;35.624;139.698;2024-01-25T21:25:12;101126.00;;;1.22;28.58
53659;BME280;41524;35.624;139.698;2024-01-25T21:30:11;101128.00;;;1.71;27.86
53659;BME280;41524;35.624;139.698;2024-01-25T21:35:10;101132.00;;;2.00;28.58
53659;BME280;41524;35.624;139.698;2024-01-25T21:40:11;101129.00;;;0.66;28.95
53659;BME280;41524;35.624;139.698;2024-01-25T21:45:11;101134.00;;;1.52;28.73
53659;BME280;41524;35.624;139.698;2024-01-25T21:50:11;101145.00;;;1.13;29.80
53659;BME280;41524;35.624;139.698;2024-01-25T21:55:11;101156.00;;;0.45;29.96
53659;BME280;41524;35.624;139.698;2024-01-25T22:00:11;101159.00;;;1.89;29.30
53659;BME280;41524;35.624;139.698;2024-01-25T22:05:20;101169.00;;;1.68;28.77
53659;BME280;41524;35.624;139.698;2024-01-25T22:10:11;101174.00;;;1.82;28.74
53659;BME280;41524;35.624;139.698;2024-01-25T22:15:12;101181.00;;;1.87;28.88
53659;BME280;41524;35.624;139.698;2024-01-25T22:20:12;101180.00;;;1.33;28.92
53659;BME280;41524;35.624;139.698;2024-01-25T22:25:11;101190.00;;;1.89;29.62
53659;BME280;41524;35.624;139.698;2024-01-25T22:30:10;101192.00;;;1.99;29.98
53659;BME280;41524;35.624;139.698;2024-01-25T22:35:11;101199.00;;;2.32;29.69
53659;BME280;41524;35.624;139.698;2024-01-25T22:40:12;101206.00;;;4.02;27.54
53659;BME280;41524;35.624;139.698;2024-01-25T22:45:11;101211.00;;;2.30;31.66
53659;BME280;41524;35.624;139.698;2024-01-25T22:50:11;101212.00;;;2.21;32.54
53659;BME280;41524;35.624;139.698;2024-01-25T22:55:11;101225.00;;;2.99;31.49
53659;BME280;41524;35.624;139.698;2024-01-25T23:00:12;101233.00;;;2.63;33.83
53659;BME280;41524;35.624;139.698;2024-01-25T23:05:10;101234.00;;;2.21;33.44
53659;BME280;41524;35.624;139.698;2024-01-25T23:10:11;101231.00;;;6.36;28.65
53659;BME280;41524;35.624;139.698;2024-01-25T23:15:11;101229.00;;;7.08;27.23
53659;BME280;41524;35.624;139.698;2024-01-25T23:20:11;101213.00;;;11.52;22.64
53659;BME280;41524;35.624;139.698;2024-01-25T23:25:11;101206.00;;;9.21;23.45
53659;BME280;41524;35.624;139.698;2024-01-25T23:30:11;101196.00;;;9.66;22.68
53659;BME280;41524;35.624;139.698;2024-01-25T23:35:11;101199.00;;;10.95;21.73
53659;BME280;41524;35.624;139.698;2024-01-25T23:40:11;101197.00;;;13.79;19.32
53659;BME280;41524;35.624;139.698;2024-01-25T23:45:10;101207.00;;;12.77;18.66
53659;BME280;41524;35.624;139.698;2024-01-25T23:50:11;101211.00;;;16.54;16.54
53659;BME280;41524;35.624;139.698;2024-01-25T23:55:10;101216.00;;;16.91;15.84
